<?xml version="1.0" encoding="UTF-8" standalone="no" ?>
<gpx xmlns="http://www.topografix.com/GPX/1/1" xmlns:xsi="http://www.w3.org/2001/XMLSchema-instance" xsi:schemaLocation="http://www.topografix.com/GPX/1/1 http://www.topografix.com/GPX/1/1/gpx.xsd" version="1.1" creator="VisuGPX - https://www.visugpx.com">
  <metadata>
    <name>Angreau, marche des jonquilles</name>
    <desc><![CDATA[Départ: Place d'Angreau, 7387 Honnelles Belgique.
Très beau parcours de 8,3 km mais qui en vaut 10. Magnifique vallée particulièrement au moment de la floraison des jonquilles.

]]></desc>
  </metadata>
  <trk>
    <name><![CDATA[ANGREAU MOI]]></name>
    <trkseg>
      <trkpt lat="50.35026" lon="3.69103">
        <ele>70.79</ele>
        <time>2016-02-26T08:27:23Z</time>
      </trkpt>
      <trkpt lat="50.35024" lon="3.69103">
        <ele>75.12</ele>
        <time>2016-02-26T08:27:41Z</time>
      </trkpt>
      <trkpt lat="50.35024" lon="3.69103">
        <ele>75.12</ele>
        <time>2016-02-26T08:27:42Z</time>
      </trkpt>
      <trkpt lat="50.35028" lon="3.691">
        <ele>73.68</ele>
        <time>2016-02-26T08:27:47Z</time>
      </trkpt>
      <trkpt lat="50.35028" lon="3.691">
        <ele>74.16</ele>
        <time>2016-02-26T08:28:02Z</time>
      </trkpt>
      <trkpt lat="50.35029" lon="3.69099">
        <ele>73.68</ele>
        <time>2016-02-26T08:28:20Z</time>
      </trkpt>
      <trkpt lat="50.3503" lon="3.69097">
        <ele>73.68</ele>
        <time>2016-02-26T08:28:40Z</time>
      </trkpt>
      <trkpt lat="50.35033" lon="3.69102">
        <ele>73.68</ele>
        <time>2016-02-26T08:29:01Z</time>
      </trkpt>
      <trkpt lat="50.35031" lon="3.69101">
        <ele>73.68</ele>
        <time>2016-02-26T08:29:21Z</time>
      </trkpt>
      <trkpt lat="50.35027" lon="3.691">
        <ele>74.16</ele>
        <time>2016-02-26T08:29:37Z</time>
      </trkpt>
      <trkpt lat="50.35027" lon="3.691">
        <ele>75.6</ele>
        <time>2016-02-26T08:29:38Z</time>
      </trkpt>
      <trkpt lat="50.35027" lon="3.691">
        <ele>75.6</ele>
        <time>2016-02-26T08:29:39Z</time>
      </trkpt>
      <trkpt lat="50.35027" lon="3.691">
        <ele>75.6</ele>
        <time>2016-02-26T08:29:41Z</time>
      </trkpt>
      <trkpt lat="50.35029" lon="3.691">
        <ele>75.12</ele>
        <time>2016-02-26T08:29:55Z</time>
      </trkpt>
      <trkpt lat="50.35028" lon="3.691">
        <ele>75.12</ele>
        <time>2016-02-26T08:30:11Z</time>
      </trkpt>
      <trkpt lat="50.35021" lon="3.69102">
        <ele>75.6</ele>
        <time>2016-02-26T08:30:17Z</time>
      </trkpt>
      <trkpt lat="50.35012" lon="3.69113">
        <ele>76.08</ele>
        <time>2016-02-26T08:30:25Z</time>
      </trkpt>
      <trkpt lat="50.35" lon="3.69135">
        <ele>76.56</ele>
        <time>2016-02-26T08:30:38Z</time>
      </trkpt>
      <trkpt lat="50.35" lon="3.69136">
        <ele>76.08</ele>
        <time>2016-02-26T08:30:39Z</time>
      </trkpt>
      <trkpt lat="50.34995" lon="3.69163">
        <ele>77.52</ele>
        <time>2016-02-26T08:30:57Z</time>
      </trkpt>
      <trkpt lat="50.34991" lon="3.69193">
        <ele>78</ele>
        <time>2016-02-26T08:31:14Z</time>
      </trkpt>
      <trkpt lat="50.3499" lon="3.69224">
        <ele>78.97</ele>
        <time>2016-02-26T08:31:31Z</time>
      </trkpt>
      <trkpt lat="50.34984" lon="3.69245">
        <ele>79.45</ele>
        <time>2016-02-26T08:31:46Z</time>
      </trkpt>
      <trkpt lat="50.34981" lon="3.69249">
        <ele>79.93</ele>
        <time>2016-02-26T08:31:51Z</time>
      </trkpt>
      <trkpt lat="50.3496" lon="3.69252">
        <ele>80.89</ele>
        <time>2016-02-26T08:32:12Z</time>
      </trkpt>
      <trkpt lat="50.3494" lon="3.69257">
        <ele>81.85</ele>
        <time>2016-02-26T08:32:30Z</time>
      </trkpt>
      <trkpt lat="50.3492" lon="3.69265">
        <ele>82.81</ele>
        <time>2016-02-26T08:32:48Z</time>
      </trkpt>
      <trkpt lat="50.34896" lon="3.69273">
        <ele>83.77</ele>
        <time>2016-02-26T08:33:08Z</time>
      </trkpt>
      <trkpt lat="50.34876" lon="3.69279">
        <ele>85.21</ele>
        <time>2016-02-26T08:33:26Z</time>
      </trkpt>
      <trkpt lat="50.34875" lon="3.69279">
        <ele>84.73</ele>
        <time>2016-02-26T08:33:27Z</time>
      </trkpt>
      <trkpt lat="50.34874" lon="3.69304">
        <ele>85.69</ele>
        <time>2016-02-26T08:33:39Z</time>
      </trkpt>
      <trkpt lat="50.34877" lon="3.69346">
        <ele>87.14</ele>
        <time>2016-02-26T08:33:54Z</time>
      </trkpt>
      <trkpt lat="50.34878" lon="3.69373">
        <ele>87.14</ele>
        <time>2016-02-26T08:34:10Z</time>
      </trkpt>
      <trkpt lat="50.34878" lon="3.694">
        <ele>88.1</ele>
        <time>2016-02-26T08:34:26Z</time>
      </trkpt>
      <trkpt lat="50.34881" lon="3.6941">
        <ele>88.1</ele>
        <time>2016-02-26T08:34:32Z</time>
      </trkpt>
      <trkpt lat="50.34882" lon="3.69442">
        <ele>88.58</ele>
        <time>2016-02-26T08:34:50Z</time>
      </trkpt>
      <trkpt lat="50.34883" lon="3.6947">
        <ele>88.58</ele>
        <time>2016-02-26T08:35:06Z</time>
      </trkpt>
      <trkpt lat="50.34885" lon="3.69503">
        <ele>89.06</ele>
        <time>2016-02-26T08:35:24Z</time>
      </trkpt>
      <trkpt lat="50.34885" lon="3.69536">
        <ele>89.54</ele>
        <time>2016-02-26T08:35:41Z</time>
      </trkpt>
      <trkpt lat="50.34885" lon="3.6957">
        <ele>89.54</ele>
        <time>2016-02-26T08:35:59Z</time>
      </trkpt>
      <trkpt lat="50.34887" lon="3.696">
        <ele>90.02</ele>
        <time>2016-02-26T08:36:16Z</time>
      </trkpt>
      <trkpt lat="50.34887" lon="3.69631">
        <ele>90.5</ele>
        <time>2016-02-26T08:36:33Z</time>
      </trkpt>
      <trkpt lat="50.3489" lon="3.69666">
        <ele>90.98</ele>
        <time>2016-02-26T08:36:52Z</time>
      </trkpt>
      <trkpt lat="50.34895" lon="3.697">
        <ele>90.5</ele>
        <time>2016-02-26T08:37:11Z</time>
      </trkpt>
      <trkpt lat="50.34901" lon="3.69734">
        <ele>90.02</ele>
        <time>2016-02-26T08:37:30Z</time>
      </trkpt>
      <trkpt lat="50.34907" lon="3.69766">
        <ele>89.06</ele>
        <time>2016-02-26T08:37:49Z</time>
      </trkpt>
      <trkpt lat="50.34911" lon="3.69794">
        <ele>87.62</ele>
        <time>2016-02-26T08:38:06Z</time>
      </trkpt>
      <trkpt lat="50.34913" lon="3.69828">
        <ele>86.18</ele>
        <time>2016-02-26T08:38:24Z</time>
      </trkpt>
      <trkpt lat="50.34916" lon="3.69853">
        <ele>83.77</ele>
        <time>2016-02-26T08:38:41Z</time>
      </trkpt>
      <trkpt lat="50.34916" lon="3.69883">
        <ele>83.29</ele>
        <time>2016-02-26T08:38:58Z</time>
      </trkpt>
      <trkpt lat="50.34913" lon="3.69898">
        <ele>80.89</ele>
        <time>2016-02-26T08:39:11Z</time>
      </trkpt>
      <trkpt lat="50.34909" lon="3.69927">
        <ele>78.48</ele>
        <time>2016-02-26T08:39:27Z</time>
      </trkpt>
      <trkpt lat="50.34907" lon="3.69957">
        <ele>75.6</ele>
        <time>2016-02-26T08:39:43Z</time>
      </trkpt>
      <trkpt lat="50.34904" lon="3.69979">
        <ele>74.64</ele>
        <time>2016-02-26T08:39:55Z</time>
      </trkpt>
      <trkpt lat="50.34899" lon="3.70014">
        <ele>72.24</ele>
        <time>2016-02-26T08:40:14Z</time>
      </trkpt>
      <trkpt lat="50.349" lon="3.70048">
        <ele>69.83</ele>
        <time>2016-02-26T08:40:31Z</time>
      </trkpt>
      <trkpt lat="50.34901" lon="3.70081">
        <ele>67.43</ele>
        <time>2016-02-26T08:40:48Z</time>
      </trkpt>
      <trkpt lat="50.349" lon="3.70114">
        <ele>65.03</ele>
        <time>2016-02-26T08:41:05Z</time>
      </trkpt>
      <trkpt lat="50.34899" lon="3.70149">
        <ele>61.66</ele>
        <time>2016-02-26T08:41:25Z</time>
      </trkpt>
      <trkpt lat="50.34905" lon="3.70169">
        <ele>59.74</ele>
        <time>2016-02-26T08:41:42Z</time>
      </trkpt>
      <trkpt lat="50.34906" lon="3.70201">
        <ele>57.82</ele>
        <time>2016-02-26T08:42:00Z</time>
      </trkpt>
      <trkpt lat="50.34899" lon="3.70228">
        <ele>57.34</ele>
        <time>2016-02-26T08:42:18Z</time>
      </trkpt>
      <trkpt lat="50.34903" lon="3.70262">
        <ele>56.37</ele>
        <time>2016-02-26T08:42:36Z</time>
      </trkpt>
      <trkpt lat="50.34908" lon="3.70279">
        <ele>55.89</ele>
        <time>2016-02-26T08:42:52Z</time>
      </trkpt>
      <trkpt lat="50.34925" lon="3.70305">
        <ele>54.93</ele>
        <time>2016-02-26T08:43:08Z</time>
      </trkpt>
      <trkpt lat="50.34935" lon="3.70322">
        <ele>53.97</ele>
        <time>2016-02-26T08:43:24Z</time>
      </trkpt>
      <trkpt lat="50.34937" lon="3.70336">
        <ele>53.01</ele>
        <time>2016-02-26T08:43:40Z</time>
      </trkpt>
      <trkpt lat="50.34938" lon="3.70338">
        <ele>52.05</ele>
        <time>2016-02-26T08:43:59Z</time>
      </trkpt>
      <trkpt lat="50.34937" lon="3.70336">
        <ele>52.05</ele>
        <time>2016-02-26T08:44:01Z</time>
      </trkpt>
      <trkpt lat="50.3493" lon="3.70316">
        <ele>52.05</ele>
        <time>2016-02-26T08:44:23Z</time>
      </trkpt>
      <trkpt lat="50.34942" lon="3.70361">
        <ele>51.09</ele>
        <time>2016-02-26T08:44:43Z</time>
      </trkpt>
      <trkpt lat="50.34948" lon="3.70372">
        <ele>50.61</ele>
        <time>2016-02-26T08:44:49Z</time>
      </trkpt>
      <trkpt lat="50.3495" lon="3.70386">
        <ele>48.68</ele>
        <time>2016-02-26T08:45:01Z</time>
      </trkpt>
      <trkpt lat="50.34956" lon="3.70424">
        <ele>47.72</ele>
        <time>2016-02-26T08:45:18Z</time>
      </trkpt>
      <trkpt lat="50.34948" lon="3.70455">
        <ele>47.72</ele>
        <time>2016-02-26T08:45:36Z</time>
      </trkpt>
      <trkpt lat="50.34925" lon="3.7045">
        <ele>48.2</ele>
        <time>2016-02-26T08:45:54Z</time>
      </trkpt>
      <trkpt lat="50.34903" lon="3.70455">
        <ele>48.68</ele>
        <time>2016-02-26T08:46:14Z</time>
      </trkpt>
      <trkpt lat="50.34893" lon="3.70467">
        <ele>49.16</ele>
        <time>2016-02-26T08:46:28Z</time>
      </trkpt>
      <trkpt lat="50.34875" lon="3.70478">
        <ele>50.13</ele>
        <time>2016-02-26T08:46:44Z</time>
      </trkpt>
      <trkpt lat="50.34861" lon="3.70497">
        <ele>51.09</ele>
        <time>2016-02-26T08:47:02Z</time>
      </trkpt>
      <trkpt lat="50.34859" lon="3.70498">
        <ele>51.57</ele>
        <time>2016-02-26T08:47:04Z</time>
      </trkpt>
      <trkpt lat="50.34849" lon="3.70505">
        <ele>52.05</ele>
        <time>2016-02-26T08:47:20Z</time>
      </trkpt>
      <trkpt lat="50.34835" lon="3.70525">
        <ele>52.53</ele>
        <time>2016-02-26T08:47:36Z</time>
      </trkpt>
      <trkpt lat="50.34826" lon="3.70535">
        <ele>53.01</ele>
        <time>2016-02-26T08:47:52Z</time>
      </trkpt>
      <trkpt lat="50.34811" lon="3.70547">
        <ele>53.97</ele>
        <time>2016-02-26T08:48:09Z</time>
      </trkpt>
      <trkpt lat="50.34803" lon="3.70568">
        <ele>54.45</ele>
        <time>2016-02-26T08:48:27Z</time>
      </trkpt>
      <trkpt lat="50.34783" lon="3.70582">
        <ele>54.93</ele>
        <time>2016-02-26T08:48:44Z</time>
      </trkpt>
      <trkpt lat="50.34756" lon="3.7056">
        <ele>57.34</ele>
        <time>2016-02-26T08:49:04Z</time>
      </trkpt>
      <trkpt lat="50.34744" lon="3.70534">
        <ele>58.78</ele>
        <time>2016-02-26T08:49:20Z</time>
      </trkpt>
      <trkpt lat="50.3474" lon="3.70522">
        <ele>60.7</ele>
        <time>2016-02-26T08:49:35Z</time>
      </trkpt>
      <trkpt lat="50.34733" lon="3.70504">
        <ele>62.14</ele>
        <time>2016-02-26T08:49:52Z</time>
      </trkpt>
      <trkpt lat="50.34724" lon="3.7048">
        <ele>64.07</ele>
        <time>2016-02-26T08:50:09Z</time>
      </trkpt>
      <trkpt lat="50.34716" lon="3.70465">
        <ele>65.51</ele>
        <time>2016-02-26T08:50:25Z</time>
      </trkpt>
      <trkpt lat="50.34702" lon="3.70437">
        <ele>66.95</ele>
        <time>2016-02-26T08:50:43Z</time>
      </trkpt>
      <trkpt lat="50.34691" lon="3.70414">
        <ele>68.39</ele>
        <time>2016-02-26T08:50:58Z</time>
      </trkpt>
      <trkpt lat="50.34677" lon="3.70397">
        <ele>70.79</ele>
        <time>2016-02-26T08:51:15Z</time>
      </trkpt>
      <trkpt lat="50.34663" lon="3.70396">
        <ele>72.24</ele>
        <time>2016-02-26T08:51:33Z</time>
      </trkpt>
      <trkpt lat="50.34645" lon="3.70397">
        <ele>73.68</ele>
        <time>2016-02-26T08:51:51Z</time>
      </trkpt>
      <trkpt lat="50.3463" lon="3.70402">
        <ele>73.68</ele>
        <time>2016-02-26T08:52:08Z</time>
      </trkpt>
      <trkpt lat="50.34618" lon="3.70411">
        <ele>75.12</ele>
        <time>2016-02-26T08:52:24Z</time>
      </trkpt>
      <trkpt lat="50.34611" lon="3.7042">
        <ele>75.6</ele>
        <time>2016-02-26T08:52:39Z</time>
      </trkpt>
      <trkpt lat="50.34614" lon="3.70417">
        <ele>74.64</ele>
        <time>2016-02-26T08:53:02Z</time>
      </trkpt>
      <trkpt lat="50.34609" lon="3.704">
        <ele>75.12</ele>
        <time>2016-02-26T08:53:25Z</time>
      </trkpt>
      <trkpt lat="50.34604" lon="3.70398">
        <ele>75.6</ele>
        <time>2016-02-26T08:53:31Z</time>
      </trkpt>
      <trkpt lat="50.34598" lon="3.70411">
        <ele>75.6</ele>
        <time>2016-02-26T08:53:40Z</time>
      </trkpt>
      <trkpt lat="50.34605" lon="3.70441">
        <ele>75.6</ele>
        <time>2016-02-26T08:53:59Z</time>
      </trkpt>
      <trkpt lat="50.34599" lon="3.7046">
        <ele>76.56</ele>
        <time>2016-02-26T08:54:14Z</time>
      </trkpt>
      <trkpt lat="50.34582" lon="3.7047">
        <ele>77.52</ele>
        <time>2016-02-26T08:54:31Z</time>
      </trkpt>
      <trkpt lat="50.34577" lon="3.7047">
        <ele>78</ele>
        <time>2016-02-26T08:54:36Z</time>
      </trkpt>
      <trkpt lat="50.34574" lon="3.70459">
        <ele>78</ele>
        <time>2016-02-26T08:54:42Z</time>
      </trkpt>
      <trkpt lat="50.34555" lon="3.70461">
        <ele>78.97</ele>
        <time>2016-02-26T08:54:59Z</time>
      </trkpt>
      <trkpt lat="50.34538" lon="3.70471">
        <ele>79.45</ele>
        <time>2016-02-26T08:55:16Z</time>
      </trkpt>
      <trkpt lat="50.34518" lon="3.70486">
        <ele>80.41</ele>
        <time>2016-02-26T08:55:35Z</time>
      </trkpt>
      <trkpt lat="50.34509" lon="3.7049">
        <ele>80.89</ele>
        <time>2016-02-26T08:55:44Z</time>
      </trkpt>
      <trkpt lat="50.34492" lon="3.70475">
        <ele>80.89</ele>
        <time>2016-02-26T08:56:02Z</time>
      </trkpt>
      <trkpt lat="50.34471" lon="3.70453">
        <ele>80.41</ele>
        <time>2016-02-26T08:56:21Z</time>
      </trkpt>
      <trkpt lat="50.34462" lon="3.7045">
        <ele>81.85</ele>
        <time>2016-02-26T08:56:32Z</time>
      </trkpt>
      <trkpt lat="50.34459" lon="3.70459">
        <ele>81.85</ele>
        <time>2016-02-26T08:56:37Z</time>
      </trkpt>
      <trkpt lat="50.34446" lon="3.70483">
        <ele>82.33</ele>
        <time>2016-02-26T08:56:56Z</time>
      </trkpt>
      <trkpt lat="50.34437" lon="3.70502">
        <ele>83.29</ele>
        <time>2016-02-26T08:57:11Z</time>
      </trkpt>
      <trkpt lat="50.34429" lon="3.70515">
        <ele>84.25</ele>
        <time>2016-02-26T08:57:22Z</time>
      </trkpt>
      <trkpt lat="50.34419" lon="3.70531">
        <ele>85.21</ele>
        <time>2016-02-26T08:57:34Z</time>
      </trkpt>
      <trkpt lat="50.34417" lon="3.70534">
        <ele>85.21</ele>
        <time>2016-02-26T08:57:37Z</time>
      </trkpt>
      <trkpt lat="50.34404" lon="3.70554">
        <ele>86.66</ele>
        <time>2016-02-26T08:57:55Z</time>
      </trkpt>
      <trkpt lat="50.34392" lon="3.70576">
        <ele>87.14</ele>
        <time>2016-02-26T08:58:11Z</time>
      </trkpt>
      <trkpt lat="50.3439" lon="3.70577">
        <ele>87.14</ele>
        <time>2016-02-26T08:58:13Z</time>
      </trkpt>
      <trkpt lat="50.3438" lon="3.70598">
        <ele>87.14</ele>
        <time>2016-02-26T08:58:28Z</time>
      </trkpt>
      <trkpt lat="50.34372" lon="3.70618">
        <ele>87.14</ele>
        <time>2016-02-26T08:58:44Z</time>
      </trkpt>
      <trkpt lat="50.34359" lon="3.70638">
        <ele>87.14</ele>
        <time>2016-02-26T08:59:03Z</time>
      </trkpt>
      <trkpt lat="50.34347" lon="3.70658">
        <ele>86.18</ele>
        <time>2016-02-26T08:59:21Z</time>
      </trkpt>
      <trkpt lat="50.34337" lon="3.70673">
        <ele>85.21</ele>
        <time>2016-02-26T08:59:40Z</time>
      </trkpt>
      <trkpt lat="50.34328" lon="3.70691">
        <ele>83.77</ele>
        <time>2016-02-26T08:59:56Z</time>
      </trkpt>
      <trkpt lat="50.34319" lon="3.70705">
        <ele>82.33</ele>
        <time>2016-02-26T09:00:12Z</time>
      </trkpt>
      <trkpt lat="50.34312" lon="3.70721">
        <ele>80.41</ele>
        <time>2016-02-26T09:00:31Z</time>
      </trkpt>
      <trkpt lat="50.34309" lon="3.70732">
        <ele>79.45</ele>
        <time>2016-02-26T09:00:43Z</time>
      </trkpt>
      <trkpt lat="50.34303" lon="3.70751">
        <ele>78</ele>
        <time>2016-02-26T09:00:59Z</time>
      </trkpt>
      <trkpt lat="50.34295" lon="3.70781">
        <ele>77.04</ele>
        <time>2016-02-26T09:01:18Z</time>
      </trkpt>
      <trkpt lat="50.34292" lon="3.70798">
        <ele>75.6</ele>
        <time>2016-02-26T09:01:35Z</time>
      </trkpt>
      <trkpt lat="50.34285" lon="3.7082">
        <ele>74.64</ele>
        <time>2016-02-26T09:01:51Z</time>
      </trkpt>
      <trkpt lat="50.34281" lon="3.70838">
        <ele>74.16</ele>
        <time>2016-02-26T09:02:05Z</time>
      </trkpt>
      <trkpt lat="50.34276" lon="3.70857">
        <ele>73.2</ele>
        <time>2016-02-26T09:02:20Z</time>
      </trkpt>
      <trkpt lat="50.34269" lon="3.7088">
        <ele>73.2</ele>
        <time>2016-02-26T09:02:37Z</time>
      </trkpt>
      <trkpt lat="50.34264" lon="3.70902">
        <ele>72.72</ele>
        <time>2016-02-26T09:02:54Z</time>
      </trkpt>
      <trkpt lat="50.3426" lon="3.70912">
        <ele>72.72</ele>
        <time>2016-02-26T09:03:01Z</time>
      </trkpt>
      <trkpt lat="50.3426" lon="3.70915">
        <ele>72.72</ele>
        <time>2016-02-26T09:03:03Z</time>
      </trkpt>
      <trkpt lat="50.34255" lon="3.70936">
        <ele>71.76</ele>
        <time>2016-02-26T09:03:20Z</time>
      </trkpt>
      <trkpt lat="50.34252" lon="3.7095">
        <ele>71.27</ele>
        <time>2016-02-26T09:03:35Z</time>
      </trkpt>
      <trkpt lat="50.34246" lon="3.7097">
        <ele>70.31</ele>
        <time>2016-02-26T09:03:51Z</time>
      </trkpt>
      <trkpt lat="50.34243" lon="3.70991">
        <ele>68.87</ele>
        <time>2016-02-26T09:04:08Z</time>
      </trkpt>
      <trkpt lat="50.34241" lon="3.71005">
        <ele>68.87</ele>
        <time>2016-02-26T09:04:18Z</time>
      </trkpt>
      <trkpt lat="50.34244" lon="3.71009">
        <ele>68.39</ele>
        <time>2016-02-26T09:04:22Z</time>
      </trkpt>
      <trkpt lat="50.34269" lon="3.71021">
        <ele>66.95</ele>
        <time>2016-02-26T09:04:44Z</time>
      </trkpt>
      <trkpt lat="50.34283" lon="3.71039">
        <ele>65.51</ele>
        <time>2016-02-26T09:05:01Z</time>
      </trkpt>
      <trkpt lat="50.34285" lon="3.71047">
        <ele>65.99</ele>
        <time>2016-02-26T09:05:06Z</time>
      </trkpt>
      <trkpt lat="50.34292" lon="3.71067">
        <ele>65.51</ele>
        <time>2016-02-26T09:05:20Z</time>
      </trkpt>
      <trkpt lat="50.343" lon="3.71091">
        <ele>64.07</ele>
        <time>2016-02-26T09:05:37Z</time>
      </trkpt>
      <trkpt lat="50.34302" lon="3.71116">
        <ele>62.62</ele>
        <time>2016-02-26T09:05:53Z</time>
      </trkpt>
      <trkpt lat="50.34308" lon="3.71142">
        <ele>61.66</ele>
        <time>2016-02-26T09:06:10Z</time>
      </trkpt>
      <trkpt lat="50.34313" lon="3.71176">
        <ele>60.22</ele>
        <time>2016-02-26T09:06:31Z</time>
      </trkpt>
      <trkpt lat="50.34316" lon="3.71208">
        <ele>59.74</ele>
        <time>2016-02-26T09:06:50Z</time>
      </trkpt>
      <trkpt lat="50.34314" lon="3.71231">
        <ele>59.26</ele>
        <time>2016-02-26T09:07:06Z</time>
      </trkpt>
      <trkpt lat="50.34313" lon="3.71231">
        <ele>59.26</ele>
        <time>2016-02-26T09:07:39Z</time>
      </trkpt>
      <trkpt lat="50.34313" lon="3.71236">
        <ele>59.26</ele>
        <time>2016-02-26T09:08:06Z</time>
      </trkpt>
      <trkpt lat="50.34307" lon="3.71269">
        <ele>59.26</ele>
        <time>2016-02-26T09:08:25Z</time>
      </trkpt>
      <trkpt lat="50.34314" lon="3.71292">
        <ele>58.3</ele>
        <time>2016-02-26T09:08:42Z</time>
      </trkpt>
      <trkpt lat="50.34318" lon="3.71321">
        <ele>58.3</ele>
        <time>2016-02-26T09:09:00Z</time>
      </trkpt>
      <trkpt lat="50.34308" lon="3.71347">
        <ele>56.86</ele>
        <time>2016-02-26T09:09:18Z</time>
      </trkpt>
      <trkpt lat="50.34307" lon="3.71349">
        <ele>56.86</ele>
        <time>2016-02-26T09:09:19Z</time>
      </trkpt>
      <trkpt lat="50.34297" lon="3.71377">
        <ele>55.41</ele>
        <time>2016-02-26T09:09:36Z</time>
      </trkpt>
      <trkpt lat="50.34288" lon="3.71408">
        <ele>54.45</ele>
        <time>2016-02-26T09:09:55Z</time>
      </trkpt>
      <trkpt lat="50.34278" lon="3.71433">
        <ele>53.49</ele>
        <time>2016-02-26T09:10:10Z</time>
      </trkpt>
      <trkpt lat="50.3427" lon="3.71455">
        <ele>53.01</ele>
        <time>2016-02-26T09:10:28Z</time>
      </trkpt>
      <trkpt lat="50.34268" lon="3.71452">
        <ele>53.01</ele>
        <time>2016-02-26T09:10:54Z</time>
      </trkpt>
      <trkpt lat="50.34255" lon="3.71454">
        <ele>53.97</ele>
        <time>2016-02-26T09:11:11Z</time>
      </trkpt>
      <trkpt lat="50.34247" lon="3.71466">
        <ele>53.97</ele>
        <time>2016-02-26T09:11:19Z</time>
      </trkpt>
      <trkpt lat="50.34224" lon="3.71471">
        <ele>53.49</ele>
        <time>2016-02-26T09:11:38Z</time>
      </trkpt>
      <trkpt lat="50.34201" lon="3.71472">
        <ele>54.93</ele>
        <time>2016-02-26T09:12:01Z</time>
      </trkpt>
      <trkpt lat="50.34181" lon="3.71475">
        <ele>55.89</ele>
        <time>2016-02-26T09:12:19Z</time>
      </trkpt>
      <trkpt lat="50.34166" lon="3.7148">
        <ele>56.86</ele>
        <time>2016-02-26T09:12:34Z</time>
      </trkpt>
      <trkpt lat="50.3415" lon="3.71484">
        <ele>58.78</ele>
        <time>2016-02-26T09:12:52Z</time>
      </trkpt>
      <trkpt lat="50.34133" lon="3.7149">
        <ele>60.22</ele>
        <time>2016-02-26T09:13:11Z</time>
      </trkpt>
      <trkpt lat="50.3412" lon="3.71504">
        <ele>62.14</ele>
        <time>2016-02-26T09:13:30Z</time>
      </trkpt>
      <trkpt lat="50.34101" lon="3.71522">
        <ele>63.1</ele>
        <time>2016-02-26T09:13:50Z</time>
      </trkpt>
      <trkpt lat="50.34089" lon="3.71535">
        <ele>65.99</ele>
        <time>2016-02-26T09:14:11Z</time>
      </trkpt>
      <trkpt lat="50.34077" lon="3.7155">
        <ele>67.91</ele>
        <time>2016-02-26T09:14:31Z</time>
      </trkpt>
      <trkpt lat="50.34064" lon="3.71562">
        <ele>70.31</ele>
        <time>2016-02-26T09:14:53Z</time>
      </trkpt>
      <trkpt lat="50.34051" lon="3.71578">
        <ele>72.24</ele>
        <time>2016-02-26T09:15:11Z</time>
      </trkpt>
      <trkpt lat="50.34038" lon="3.7159">
        <ele>73.68</ele>
        <time>2016-02-26T09:15:27Z</time>
      </trkpt>
      <trkpt lat="50.34029" lon="3.71612">
        <ele>75.12</ele>
        <time>2016-02-26T09:15:45Z</time>
      </trkpt>
      <trkpt lat="50.34019" lon="3.71633">
        <ele>75.12</ele>
        <time>2016-02-26T09:16:00Z</time>
      </trkpt>
      <trkpt lat="50.34012" lon="3.71655">
        <ele>75.6</ele>
        <time>2016-02-26T09:16:16Z</time>
      </trkpt>
      <trkpt lat="50.33995" lon="3.71675">
        <ele>75.6</ele>
        <time>2016-02-26T09:16:32Z</time>
      </trkpt>
      <trkpt lat="50.33981" lon="3.71703">
        <ele>75.6</ele>
        <time>2016-02-26T09:16:49Z</time>
      </trkpt>
      <trkpt lat="50.33977" lon="3.71711">
        <ele>75.6</ele>
        <time>2016-02-26T09:16:54Z</time>
      </trkpt>
      <trkpt lat="50.33977" lon="3.71715">
        <ele>75.12</ele>
        <time>2016-02-26T09:16:56Z</time>
      </trkpt>
      <trkpt lat="50.33986" lon="3.71752">
        <ele>73.68</ele>
        <time>2016-02-26T09:17:16Z</time>
      </trkpt>
      <trkpt lat="50.33995" lon="3.71777">
        <ele>72.72</ele>
        <time>2016-02-26T09:17:33Z</time>
      </trkpt>
      <trkpt lat="50.34006" lon="3.71804">
        <ele>71.27</ele>
        <time>2016-02-26T09:17:51Z</time>
      </trkpt>
      <trkpt lat="50.34013" lon="3.71834">
        <ele>70.31</ele>
        <time>2016-02-26T09:18:08Z</time>
      </trkpt>
      <trkpt lat="50.34015" lon="3.7184">
        <ele>69.83</ele>
        <time>2016-02-26T09:18:12Z</time>
      </trkpt>
      <trkpt lat="50.34019" lon="3.71862">
        <ele>69.35</ele>
        <time>2016-02-26T09:18:26Z</time>
      </trkpt>
      <trkpt lat="50.34019" lon="3.71896">
        <ele>67.91</ele>
        <time>2016-02-26T09:18:47Z</time>
      </trkpt>
      <trkpt lat="50.34019" lon="3.71921">
        <ele>66.95</ele>
        <time>2016-02-26T09:19:04Z</time>
      </trkpt>
      <trkpt lat="50.34017" lon="3.71926">
        <ele>66.47</ele>
        <time>2016-02-26T09:19:08Z</time>
      </trkpt>
      <trkpt lat="50.34019" lon="3.71964">
        <ele>65.03</ele>
        <time>2016-02-26T09:19:29Z</time>
      </trkpt>
      <trkpt lat="50.34025" lon="3.71988">
        <ele>63.58</ele>
        <time>2016-02-26T09:19:47Z</time>
      </trkpt>
      <trkpt lat="50.34031" lon="3.72007">
        <ele>63.1</ele>
        <time>2016-02-26T09:20:00Z</time>
      </trkpt>
      <trkpt lat="50.34041" lon="3.72033">
        <ele>61.66</ele>
        <time>2016-02-26T09:20:17Z</time>
      </trkpt>
      <trkpt lat="50.34053" lon="3.72058">
        <ele>60.7</ele>
        <time>2016-02-26T09:20:34Z</time>
      </trkpt>
      <trkpt lat="50.34065" lon="3.72084">
        <ele>59.74</ele>
        <time>2016-02-26T09:20:53Z</time>
      </trkpt>
      <trkpt lat="50.34065" lon="3.72118">
        <ele>58.78</ele>
        <time>2016-02-26T09:21:11Z</time>
      </trkpt>
      <trkpt lat="50.3406" lon="3.72145">
        <ele>57.82</ele>
        <time>2016-02-26T09:21:28Z</time>
      </trkpt>
      <trkpt lat="50.34054" lon="3.72174">
        <ele>57.34</ele>
        <time>2016-02-26T09:21:45Z</time>
      </trkpt>
      <trkpt lat="50.34047" lon="3.72208">
        <ele>56.37</ele>
        <time>2016-02-26T09:22:03Z</time>
      </trkpt>
      <trkpt lat="50.3404" lon="3.7224">
        <ele>56.37</ele>
        <time>2016-02-26T09:22:22Z</time>
      </trkpt>
      <trkpt lat="50.34034" lon="3.72271">
        <ele>56.86</ele>
        <time>2016-02-26T09:22:42Z</time>
      </trkpt>
      <trkpt lat="50.34034" lon="3.72277">
        <ele>56.86</ele>
        <time>2016-02-26T09:22:46Z</time>
      </trkpt>
      <trkpt lat="50.34056" lon="3.72269">
        <ele>57.34</ele>
        <time>2016-02-26T09:23:03Z</time>
      </trkpt>
      <trkpt lat="50.34074" lon="3.72256">
        <ele>58.3</ele>
        <time>2016-02-26T09:23:21Z</time>
      </trkpt>
      <trkpt lat="50.34095" lon="3.72242">
        <ele>58.78</ele>
        <time>2016-02-26T09:23:41Z</time>
      </trkpt>
      <trkpt lat="50.34101" lon="3.72233">
        <ele>58.78</ele>
        <time>2016-02-26T09:23:48Z</time>
      </trkpt>
      <trkpt lat="50.34112" lon="3.72209">
        <ele>59.26</ele>
        <time>2016-02-26T09:24:05Z</time>
      </trkpt>
      <trkpt lat="50.34125" lon="3.72179">
        <ele>58.78</ele>
        <time>2016-02-26T09:24:24Z</time>
      </trkpt>
      <trkpt lat="50.34141" lon="3.72152">
        <ele>59.26</ele>
        <time>2016-02-26T09:24:44Z</time>
      </trkpt>
      <trkpt lat="50.34157" lon="3.72132">
        <ele>58.3</ele>
        <time>2016-02-26T09:25:03Z</time>
      </trkpt>
      <trkpt lat="50.34161" lon="3.72114">
        <ele>58.78</ele>
        <time>2016-02-26T09:25:19Z</time>
      </trkpt>
      <trkpt lat="50.34156" lon="3.72121">
        <ele>58.78</ele>
        <time>2016-02-26T09:25:52Z</time>
      </trkpt>
      <trkpt lat="50.34161" lon="3.72108">
        <ele>58.3</ele>
        <time>2016-02-26T09:26:01Z</time>
      </trkpt>
      <trkpt lat="50.34174" lon="3.72074">
        <ele>57.34</ele>
        <time>2016-02-26T09:26:20Z</time>
      </trkpt>
      <trkpt lat="50.34165" lon="3.72045">
        <ele>57.34</ele>
        <time>2016-02-26T09:26:35Z</time>
      </trkpt>
      <trkpt lat="50.34155" lon="3.72021">
        <ele>57.34</ele>
        <time>2016-02-26T09:26:49Z</time>
      </trkpt>
      <trkpt lat="50.34148" lon="3.71996">
        <ele>56.86</ele>
        <time>2016-02-26T09:27:04Z</time>
      </trkpt>
      <trkpt lat="50.34139" lon="3.71977">
        <ele>56.37</ele>
        <time>2016-02-26T09:27:18Z</time>
      </trkpt>
      <trkpt lat="50.34134" lon="3.71944">
        <ele>56.37</ele>
        <time>2016-02-26T09:27:36Z</time>
      </trkpt>
      <trkpt lat="50.34126" lon="3.71921">
        <ele>55.89</ele>
        <time>2016-02-26T09:27:51Z</time>
      </trkpt>
      <trkpt lat="50.3412" lon="3.71894">
        <ele>55.89</ele>
        <time>2016-02-26T09:28:08Z</time>
      </trkpt>
      <trkpt lat="50.34116" lon="3.71859">
        <ele>55.89</ele>
        <time>2016-02-26T09:28:24Z</time>
      </trkpt>
      <trkpt lat="50.34112" lon="3.71831">
        <ele>55.41</ele>
        <time>2016-02-26T09:28:41Z</time>
      </trkpt>
      <trkpt lat="50.3411" lon="3.71807">
        <ele>55.41</ele>
        <time>2016-02-26T09:28:56Z</time>
      </trkpt>
      <trkpt lat="50.34106" lon="3.71792">
        <ele>55.41</ele>
        <time>2016-02-26T09:29:06Z</time>
      </trkpt>
      <trkpt lat="50.34097" lon="3.71772">
        <ele>55.41</ele>
        <time>2016-02-26T09:29:22Z</time>
      </trkpt>
      <trkpt lat="50.34097" lon="3.71766">
        <ele>55.41</ele>
        <time>2016-02-26T09:29:25Z</time>
      </trkpt>
      <trkpt lat="50.34101" lon="3.71728">
        <ele>55.89</ele>
        <time>2016-02-26T09:29:43Z</time>
      </trkpt>
      <trkpt lat="50.34113" lon="3.71706">
        <ele>55.89</ele>
        <time>2016-02-26T09:29:59Z</time>
      </trkpt>
      <trkpt lat="50.34118" lon="3.71691">
        <ele>56.37</ele>
        <time>2016-02-26T09:30:14Z</time>
      </trkpt>
      <trkpt lat="50.34132" lon="3.71674">
        <ele>56.37</ele>
        <time>2016-02-26T09:30:30Z</time>
      </trkpt>
      <trkpt lat="50.34143" lon="3.71652">
        <ele>55.89</ele>
        <time>2016-02-26T09:30:46Z</time>
      </trkpt>
      <trkpt lat="50.3416" lon="3.71629">
        <ele>55.89</ele>
        <time>2016-02-26T09:31:06Z</time>
      </trkpt>
      <trkpt lat="50.34175" lon="3.71608">
        <ele>55.41</ele>
        <time>2016-02-26T09:31:24Z</time>
      </trkpt>
      <trkpt lat="50.3418" lon="3.716">
        <ele>55.41</ele>
        <time>2016-02-26T09:31:30Z</time>
      </trkpt>
      <trkpt lat="50.34194" lon="3.71581">
        <ele>54.93</ele>
        <time>2016-02-26T09:31:47Z</time>
      </trkpt>
      <trkpt lat="50.34204" lon="3.71573">
        <ele>54.93</ele>
        <time>2016-02-26T09:32:01Z</time>
      </trkpt>
      <trkpt lat="50.34217" lon="3.71559">
        <ele>54.93</ele>
        <time>2016-02-26T09:32:17Z</time>
      </trkpt>
      <trkpt lat="50.34234" lon="3.71539">
        <ele>54.45</ele>
        <time>2016-02-26T09:32:34Z</time>
      </trkpt>
      <trkpt lat="50.34251" lon="3.71528">
        <ele>53.97</ele>
        <time>2016-02-26T09:32:52Z</time>
      </trkpt>
      <trkpt lat="50.34263" lon="3.71527">
        <ele>54.45</ele>
        <time>2016-02-26T09:33:07Z</time>
      </trkpt>
      <trkpt lat="50.34273" lon="3.71528">
        <ele>53.97</ele>
        <time>2016-02-26T09:33:23Z</time>
      </trkpt>
      <trkpt lat="50.34277" lon="3.71533">
        <ele>54.45</ele>
        <time>2016-02-26T09:33:29Z</time>
      </trkpt>
      <trkpt lat="50.34297" lon="3.71524">
        <ele>54.93</ele>
        <time>2016-02-26T09:33:47Z</time>
      </trkpt>
      <trkpt lat="50.34305" lon="3.71521">
        <ele>54.93</ele>
        <time>2016-02-26T09:33:55Z</time>
      </trkpt>
      <trkpt lat="50.34321" lon="3.71512">
        <ele>55.41</ele>
        <time>2016-02-26T09:34:12Z</time>
      </trkpt>
      <trkpt lat="50.34345" lon="3.71501">
        <ele>55.41</ele>
        <time>2016-02-26T09:34:31Z</time>
      </trkpt>
      <trkpt lat="50.34369" lon="3.71482">
        <ele>54.45</ele>
        <time>2016-02-26T09:34:52Z</time>
      </trkpt>
      <trkpt lat="50.34381" lon="3.71466">
        <ele>54.45</ele>
        <time>2016-02-26T09:35:10Z</time>
      </trkpt>
      <trkpt lat="50.34384" lon="3.71463">
        <ele>54.93</ele>
        <time>2016-02-26T09:35:13Z</time>
      </trkpt>
      <trkpt lat="50.34404" lon="3.71449">
        <ele>53.97</ele>
        <time>2016-02-26T09:35:31Z</time>
      </trkpt>
      <trkpt lat="50.34414" lon="3.71434">
        <ele>54.45</ele>
        <time>2016-02-26T09:35:41Z</time>
      </trkpt>
      <trkpt lat="50.3443" lon="3.71403">
        <ele>54.45</ele>
        <time>2016-02-26T09:36:00Z</time>
      </trkpt>
      <trkpt lat="50.34438" lon="3.7138">
        <ele>53.97</ele>
        <time>2016-02-26T09:36:18Z</time>
      </trkpt>
      <trkpt lat="50.34446" lon="3.71345">
        <ele>53.49</ele>
        <time>2016-02-26T09:36:36Z</time>
      </trkpt>
      <trkpt lat="50.34452" lon="3.71321">
        <ele>53.97</ele>
        <time>2016-02-26T09:36:52Z</time>
      </trkpt>
      <trkpt lat="50.34456" lon="3.71285">
        <ele>53.97</ele>
        <time>2016-02-26T09:37:12Z</time>
      </trkpt>
      <trkpt lat="50.34457" lon="3.71257">
        <ele>53.97</ele>
        <time>2016-02-26T09:37:28Z</time>
      </trkpt>
      <trkpt lat="50.3446" lon="3.71236">
        <ele>53.01</ele>
        <time>2016-02-26T09:37:45Z</time>
      </trkpt>
      <trkpt lat="50.34459" lon="3.71218">
        <ele>53.01</ele>
        <time>2016-02-26T09:38:02Z</time>
      </trkpt>
      <trkpt lat="50.34469" lon="3.71189">
        <ele>53.01</ele>
        <time>2016-02-26T09:38:20Z</time>
      </trkpt>
      <trkpt lat="50.34479" lon="3.7118">
        <ele>53.01</ele>
        <time>2016-02-26T09:38:34Z</time>
      </trkpt>
      <trkpt lat="50.34494" lon="3.71167">
        <ele>53.01</ele>
        <time>2016-02-26T09:38:50Z</time>
      </trkpt>
      <trkpt lat="50.34504" lon="3.71158">
        <ele>53.97</ele>
        <time>2016-02-26T09:39:06Z</time>
      </trkpt>
      <trkpt lat="50.34499" lon="3.71153">
        <ele>54.45</ele>
        <time>2016-02-26T09:39:26Z</time>
      </trkpt>
      <trkpt lat="50.345" lon="3.71152">
        <ele>54.93</ele>
        <time>2016-02-26T09:39:54Z</time>
      </trkpt>
      <trkpt lat="50.34508" lon="3.7114">
        <ele>54.93</ele>
        <time>2016-02-26T09:40:16Z</time>
      </trkpt>
      <trkpt lat="50.34528" lon="3.71126">
        <ele>54.45</ele>
        <time>2016-02-26T09:40:33Z</time>
      </trkpt>
      <trkpt lat="50.34536" lon="3.71096">
        <ele>52.53</ele>
        <time>2016-02-26T09:40:51Z</time>
      </trkpt>
      <trkpt lat="50.34536" lon="3.71072">
        <ele>52.53</ele>
        <time>2016-02-26T09:41:08Z</time>
      </trkpt>
      <trkpt lat="50.34543" lon="3.7105">
        <ele>52.53</ele>
        <time>2016-02-26T09:41:25Z</time>
      </trkpt>
      <trkpt lat="50.34557" lon="3.7102">
        <ele>52.53</ele>
        <time>2016-02-26T09:41:44Z</time>
      </trkpt>
      <trkpt lat="50.3457" lon="3.71003">
        <ele>53.01</ele>
        <time>2016-02-26T09:42:02Z</time>
      </trkpt>
      <trkpt lat="50.34574" lon="3.7099">
        <ele>53.49</ele>
        <time>2016-02-26T09:42:12Z</time>
      </trkpt>
      <trkpt lat="50.34576" lon="3.70961">
        <ele>52.05</ele>
        <time>2016-02-26T09:42:28Z</time>
      </trkpt>
      <trkpt lat="50.34572" lon="3.70942">
        <ele>51.09</ele>
        <time>2016-02-26T09:42:46Z</time>
      </trkpt>
      <trkpt lat="50.34577" lon="3.70921">
        <ele>51.57</ele>
        <time>2016-02-26T09:43:04Z</time>
      </trkpt>
      <trkpt lat="50.34581" lon="3.70897">
        <ele>51.57</ele>
        <time>2016-02-26T09:43:20Z</time>
      </trkpt>
      <trkpt lat="50.34586" lon="3.70892">
        <ele>52.05</ele>
        <time>2016-02-26T09:43:35Z</time>
      </trkpt>
      <trkpt lat="50.346" lon="3.70881">
        <ele>51.57</ele>
        <time>2016-02-26T09:43:55Z</time>
      </trkpt>
      <trkpt lat="50.34608" lon="3.70883">
        <ele>51.57</ele>
        <time>2016-02-26T09:44:10Z</time>
      </trkpt>
      <trkpt lat="50.34614" lon="3.7088">
        <ele>51.09</ele>
        <time>2016-02-26T09:44:17Z</time>
      </trkpt>
      <trkpt lat="50.34637" lon="3.70859">
        <ele>52.05</ele>
        <time>2016-02-26T09:44:33Z</time>
      </trkpt>
      <trkpt lat="50.34648" lon="3.7086">
        <ele>52.05</ele>
        <time>2016-02-26T09:44:47Z</time>
      </trkpt>
      <trkpt lat="50.34654" lon="3.70866">
        <ele>53.01</ele>
        <time>2016-02-26T09:45:03Z</time>
      </trkpt>
      <trkpt lat="50.3467" lon="3.70875">
        <ele>52.53</ele>
        <time>2016-02-26T09:45:18Z</time>
      </trkpt>
      <trkpt lat="50.34682" lon="3.70872">
        <ele>52.05</ele>
        <time>2016-02-26T09:45:33Z</time>
      </trkpt>
      <trkpt lat="50.34694" lon="3.70871">
        <ele>52.05</ele>
        <time>2016-02-26T09:45:49Z</time>
      </trkpt>
      <trkpt lat="50.34706" lon="3.70869">
        <ele>52.05</ele>
        <time>2016-02-26T09:46:02Z</time>
      </trkpt>
      <trkpt lat="50.34725" lon="3.70865">
        <ele>52.05</ele>
        <time>2016-02-26T09:46:17Z</time>
      </trkpt>
      <trkpt lat="50.34743" lon="3.70858">
        <ele>52.53</ele>
        <time>2016-02-26T09:46:34Z</time>
      </trkpt>
      <trkpt lat="50.34758" lon="3.7085">
        <ele>53.01</ele>
        <time>2016-02-26T09:46:51Z</time>
      </trkpt>
      <trkpt lat="50.3477" lon="3.7084">
        <ele>52.53</ele>
        <time>2016-02-26T09:47:07Z</time>
      </trkpt>
      <trkpt lat="50.34782" lon="3.70837">
        <ele>52.53</ele>
        <time>2016-02-26T09:47:24Z</time>
      </trkpt>
      <trkpt lat="50.34797" lon="3.70821">
        <ele>52.53</ele>
        <time>2016-02-26T09:47:38Z</time>
      </trkpt>
      <trkpt lat="50.34799" lon="3.70818">
        <ele>52.53</ele>
        <time>2016-02-26T09:47:40Z</time>
      </trkpt>
      <trkpt lat="50.34816" lon="3.70801">
        <ele>52.53</ele>
        <time>2016-02-26T09:47:57Z</time>
      </trkpt>
      <trkpt lat="50.3483" lon="3.70778">
        <ele>52.05</ele>
        <time>2016-02-26T09:48:15Z</time>
      </trkpt>
      <trkpt lat="50.34841" lon="3.70764">
        <ele>52.53</ele>
        <time>2016-02-26T09:48:32Z</time>
      </trkpt>
      <trkpt lat="50.34858" lon="3.70734">
        <ele>52.53</ele>
        <time>2016-02-26T09:48:49Z</time>
      </trkpt>
      <trkpt lat="50.34866" lon="3.70714">
        <ele>53.01</ele>
        <time>2016-02-26T09:49:04Z</time>
      </trkpt>
      <trkpt lat="50.34876" lon="3.70693">
        <ele>52.53</ele>
        <time>2016-02-26T09:49:19Z</time>
      </trkpt>
      <trkpt lat="50.34889" lon="3.70671">
        <ele>53.01</ele>
        <time>2016-02-26T09:49:36Z</time>
      </trkpt>
      <trkpt lat="50.34891" lon="3.70669">
        <ele>53.01</ele>
        <time>2016-02-26T09:49:38Z</time>
      </trkpt>
      <trkpt lat="50.34902" lon="3.70653">
        <ele>53.01</ele>
        <time>2016-02-26T09:49:54Z</time>
      </trkpt>
      <trkpt lat="50.34916" lon="3.7063">
        <ele>53.01</ele>
        <time>2016-02-26T09:50:11Z</time>
      </trkpt>
      <trkpt lat="50.34933" lon="3.70606">
        <ele>53.01</ele>
        <time>2016-02-26T09:50:28Z</time>
      </trkpt>
      <trkpt lat="50.34942" lon="3.70598">
        <ele>53.01</ele>
        <time>2016-02-26T09:50:46Z</time>
      </trkpt>
      <trkpt lat="50.3494" lon="3.70593">
        <ele>53.01</ele>
        <time>2016-02-26T09:50:53Z</time>
      </trkpt>
      <trkpt lat="50.34951" lon="3.70574">
        <ele>53.49</ele>
        <time>2016-02-26T09:51:09Z</time>
      </trkpt>
      <trkpt lat="50.34953" lon="3.70567">
        <ele>53.49</ele>
        <time>2016-02-26T09:51:13Z</time>
      </trkpt>
      <trkpt lat="50.34968" lon="3.70541">
        <ele>53.49</ele>
        <time>2016-02-26T09:51:31Z</time>
      </trkpt>
      <trkpt lat="50.34983" lon="3.70513">
        <ele>53.97</ele>
        <time>2016-02-26T09:51:48Z</time>
      </trkpt>
      <trkpt lat="50.34996" lon="3.70503">
        <ele>54.45</ele>
        <time>2016-02-26T09:52:06Z</time>
      </trkpt>
      <trkpt lat="50.35009" lon="3.70505">
        <ele>55.89</ele>
        <time>2016-02-26T09:52:23Z</time>
      </trkpt>
      <trkpt lat="50.35019" lon="3.70503">
        <ele>56.37</ele>
        <time>2016-02-26T09:52:31Z</time>
      </trkpt>
      <trkpt lat="50.35036" lon="3.70494">
        <ele>57.34</ele>
        <time>2016-02-26T09:52:50Z</time>
      </trkpt>
      <trkpt lat="50.35051" lon="3.70481">
        <ele>59.26</ele>
        <time>2016-02-26T09:53:05Z</time>
      </trkpt>
      <trkpt lat="50.35072" lon="3.70466">
        <ele>60.7</ele>
        <time>2016-02-26T09:53:25Z</time>
      </trkpt>
      <trkpt lat="50.35085" lon="3.70478">
        <ele>62.14</ele>
        <time>2016-02-26T09:53:42Z</time>
      </trkpt>
      <trkpt lat="50.35096" lon="3.7048">
        <ele>64.07</ele>
        <time>2016-02-26T09:53:58Z</time>
      </trkpt>
      <trkpt lat="50.35102" lon="3.70477">
        <ele>64.55</ele>
        <time>2016-02-26T09:54:05Z</time>
      </trkpt>
      <trkpt lat="50.35115" lon="3.70469">
        <ele>66.47</ele>
        <time>2016-02-26T09:54:20Z</time>
      </trkpt>
      <trkpt lat="50.35129" lon="3.70468">
        <ele>69.35</ele>
        <time>2016-02-26T09:54:37Z</time>
      </trkpt>
      <trkpt lat="50.35145" lon="3.7045">
        <ele>71.27</ele>
        <time>2016-02-26T09:54:57Z</time>
      </trkpt>
      <trkpt lat="50.35151" lon="3.70443">
        <ele>73.2</ele>
        <time>2016-02-26T09:55:12Z</time>
      </trkpt>
      <trkpt lat="50.35164" lon="3.70432">
        <ele>75.12</ele>
        <time>2016-02-26T09:55:29Z</time>
      </trkpt>
      <trkpt lat="50.35179" lon="3.70421">
        <ele>76.56</ele>
        <time>2016-02-26T09:55:45Z</time>
      </trkpt>
      <trkpt lat="50.35194" lon="3.7041">
        <ele>78</ele>
        <time>2016-02-26T09:56:04Z</time>
      </trkpt>
      <trkpt lat="50.35208" lon="3.70408">
        <ele>78.97</ele>
        <time>2016-02-26T09:56:21Z</time>
      </trkpt>
      <trkpt lat="50.35227" lon="3.704">
        <ele>80.41</ele>
        <time>2016-02-26T09:56:39Z</time>
      </trkpt>
      <trkpt lat="50.35251" lon="3.70394">
        <ele>81.85</ele>
        <time>2016-02-26T09:56:58Z</time>
      </trkpt>
      <trkpt lat="50.35265" lon="3.70389">
        <ele>81.85</ele>
        <time>2016-02-26T09:57:14Z</time>
      </trkpt>
      <trkpt lat="50.3528" lon="3.70384">
        <ele>82.81</ele>
        <time>2016-02-26T09:57:31Z</time>
      </trkpt>
      <trkpt lat="50.35297" lon="3.70375">
        <ele>82.81</ele>
        <time>2016-02-26T09:57:48Z</time>
      </trkpt>
      <trkpt lat="50.35318" lon="3.70366">
        <ele>82.81</ele>
        <time>2016-02-26T09:58:08Z</time>
      </trkpt>
      <trkpt lat="50.35334" lon="3.70362">
        <ele>83.29</ele>
        <time>2016-02-26T09:58:22Z</time>
      </trkpt>
      <trkpt lat="50.35348" lon="3.70352">
        <ele>83.29</ele>
        <time>2016-02-26T09:58:37Z</time>
      </trkpt>
      <trkpt lat="50.35368" lon="3.70356">
        <ele>83.29</ele>
        <time>2016-02-26T09:58:56Z</time>
      </trkpt>
      <trkpt lat="50.35386" lon="3.70359">
        <ele>83.77</ele>
        <time>2016-02-26T09:59:12Z</time>
      </trkpt>
      <trkpt lat="50.35395" lon="3.70356">
        <ele>83.29</ele>
        <time>2016-02-26T09:59:25Z</time>
      </trkpt>
      <trkpt lat="50.35402" lon="3.70357">
        <ele>83.29</ele>
        <time>2016-02-26T09:59:49Z</time>
      </trkpt>
      <trkpt lat="50.35403" lon="3.70365">
        <ele>83.77</ele>
        <time>2016-02-26T10:00:23Z</time>
      </trkpt>
      <trkpt lat="50.35396" lon="3.70367">
        <ele>83.77</ele>
        <time>2016-02-26T10:00:55Z</time>
      </trkpt>
      <trkpt lat="50.35401" lon="3.70355">
        <ele>83.77</ele>
        <time>2016-02-26T10:01:24Z</time>
      </trkpt>
      <trkpt lat="50.35389" lon="3.70357">
        <ele>84.25</ele>
        <time>2016-02-26T10:01:59Z</time>
      </trkpt>
      <trkpt lat="50.35394" lon="3.70361">
        <ele>84.73</ele>
        <time>2016-02-26T10:02:35Z</time>
      </trkpt>
      <trkpt lat="50.35397" lon="3.7037">
        <ele>84.25</ele>
        <time>2016-02-26T10:03:03Z</time>
      </trkpt>
      <trkpt lat="50.35398" lon="3.70364">
        <ele>84.73</ele>
        <time>2016-02-26T10:03:31Z</time>
      </trkpt>
      <trkpt lat="50.35399" lon="3.70363">
        <ele>84.73</ele>
        <time>2016-02-26T10:03:58Z</time>
      </trkpt>
      <trkpt lat="50.35401" lon="3.70361">
        <ele>84.73</ele>
        <time>2016-02-26T10:04:19Z</time>
      </trkpt>
      <trkpt lat="50.35401" lon="3.7036">
        <ele>85.21</ele>
        <time>2016-02-26T10:04:41Z</time>
      </trkpt>
      <trkpt lat="50.35409" lon="3.70357">
        <ele>85.21</ele>
        <time>2016-02-26T10:04:59Z</time>
      </trkpt>
      <trkpt lat="50.35428" lon="3.70355">
        <ele>85.69</ele>
        <time>2016-02-26T10:05:13Z</time>
      </trkpt>
      <trkpt lat="50.35451" lon="3.70362">
        <ele>85.69</ele>
        <time>2016-02-26T10:05:34Z</time>
      </trkpt>
      <trkpt lat="50.35473" lon="3.7037">
        <ele>85.21</ele>
        <time>2016-02-26T10:05:54Z</time>
      </trkpt>
      <trkpt lat="50.35494" lon="3.7038">
        <ele>85.21</ele>
        <time>2016-02-26T10:06:14Z</time>
      </trkpt>
      <trkpt lat="50.355" lon="3.70377">
        <ele>85.21</ele>
        <time>2016-02-26T10:06:20Z</time>
      </trkpt>
      <trkpt lat="50.35518" lon="3.70367">
        <ele>84.25</ele>
        <time>2016-02-26T10:06:38Z</time>
      </trkpt>
      <trkpt lat="50.35535" lon="3.70354">
        <ele>83.29</ele>
        <time>2016-02-26T10:06:56Z</time>
      </trkpt>
      <trkpt lat="50.35554" lon="3.70342">
        <ele>82.81</ele>
        <time>2016-02-26T10:07:16Z</time>
      </trkpt>
      <trkpt lat="50.35574" lon="3.7033">
        <ele>81.85</ele>
        <time>2016-02-26T10:07:35Z</time>
      </trkpt>
      <trkpt lat="50.35591" lon="3.7032">
        <ele>81.37</ele>
        <time>2016-02-26T10:07:54Z</time>
      </trkpt>
      <trkpt lat="50.35609" lon="3.70309">
        <ele>80.41</ele>
        <time>2016-02-26T10:08:12Z</time>
      </trkpt>
      <trkpt lat="50.35636" lon="3.70299">
        <ele>79.45</ele>
        <time>2016-02-26T10:08:33Z</time>
      </trkpt>
      <trkpt lat="50.35659" lon="3.70292">
        <ele>78.97</ele>
        <time>2016-02-26T10:08:53Z</time>
      </trkpt>
      <trkpt lat="50.35676" lon="3.70286">
        <ele>78</ele>
        <time>2016-02-26T10:09:10Z</time>
      </trkpt>
      <trkpt lat="50.357" lon="3.70276">
        <ele>76.56</ele>
        <time>2016-02-26T10:09:30Z</time>
      </trkpt>
      <trkpt lat="50.3572" lon="3.70266">
        <ele>76.08</ele>
        <time>2016-02-26T10:09:49Z</time>
      </trkpt>
      <trkpt lat="50.35739" lon="3.70254">
        <ele>75.12</ele>
        <time>2016-02-26T10:10:09Z</time>
      </trkpt>
      <trkpt lat="50.35765" lon="3.70241">
        <ele>74.64</ele>
        <time>2016-02-26T10:10:31Z</time>
      </trkpt>
      <trkpt lat="50.35784" lon="3.70233">
        <ele>73.68</ele>
        <time>2016-02-26T10:10:49Z</time>
      </trkpt>
      <trkpt lat="50.35807" lon="3.70222">
        <ele>73.2</ele>
        <time>2016-02-26T10:11:09Z</time>
      </trkpt>
      <trkpt lat="50.35824" lon="3.70208">
        <ele>73.2</ele>
        <time>2016-02-26T10:11:28Z</time>
      </trkpt>
      <trkpt lat="50.35833" lon="3.70206">
        <ele>73.2</ele>
        <time>2016-02-26T10:11:37Z</time>
      </trkpt>
      <trkpt lat="50.35837" lon="3.70205">
        <ele>72.72</ele>
        <time>2016-02-26T10:11:40Z</time>
      </trkpt>
      <trkpt lat="50.35859" lon="3.70186">
        <ele>72.24</ele>
        <time>2016-02-26T10:12:00Z</time>
      </trkpt>
      <trkpt lat="50.35874" lon="3.70167">
        <ele>71.76</ele>
        <time>2016-02-26T10:12:19Z</time>
      </trkpt>
      <trkpt lat="50.35893" lon="3.70142">
        <ele>71.27</ele>
        <time>2016-02-26T10:12:40Z</time>
      </trkpt>
      <trkpt lat="50.35914" lon="3.70119">
        <ele>70.79</ele>
        <time>2016-02-26T10:13:00Z</time>
      </trkpt>
      <trkpt lat="50.35929" lon="3.70102">
        <ele>70.79</ele>
        <time>2016-02-26T10:13:17Z</time>
      </trkpt>
      <trkpt lat="50.35945" lon="3.70079">
        <ele>70.79</ele>
        <time>2016-02-26T10:13:36Z</time>
      </trkpt>
      <trkpt lat="50.35963" lon="3.70056">
        <ele>69.83</ele>
        <time>2016-02-26T10:13:57Z</time>
      </trkpt>
      <trkpt lat="50.35978" lon="3.70045">
        <ele>69.35</ele>
        <time>2016-02-26T10:14:11Z</time>
      </trkpt>
      <trkpt lat="50.35971" lon="3.70036">
        <ele>68.87</ele>
        <time>2016-02-26T10:14:18Z</time>
      </trkpt>
      <trkpt lat="50.35946" lon="3.70023">
        <ele>65.99</ele>
        <time>2016-02-26T10:14:41Z</time>
      </trkpt>
      <trkpt lat="50.35926" lon="3.70012">
        <ele>65.03</ele>
        <time>2016-02-26T10:15:01Z</time>
      </trkpt>
      <trkpt lat="50.35907" lon="3.7">
        <ele>63.1</ele>
        <time>2016-02-26T10:15:19Z</time>
      </trkpt>
      <trkpt lat="50.35889" lon="3.69985">
        <ele>60.22</ele>
        <time>2016-02-26T10:15:39Z</time>
      </trkpt>
      <trkpt lat="50.35871" lon="3.69968">
        <ele>57.34</ele>
        <time>2016-02-26T10:16:00Z</time>
      </trkpt>
      <trkpt lat="50.35854" lon="3.6995">
        <ele>54.45</ele>
        <time>2016-02-26T10:16:20Z</time>
      </trkpt>
      <trkpt lat="50.35834" lon="3.69931">
        <ele>52.05</ele>
        <time>2016-02-26T10:16:41Z</time>
      </trkpt>
      <trkpt lat="50.35815" lon="3.69913">
        <ele>50.13</ele>
        <time>2016-02-26T10:17:00Z</time>
      </trkpt>
      <trkpt lat="50.35792" lon="3.69913">
        <ele>48.2</ele>
        <time>2016-02-26T10:17:20Z</time>
      </trkpt>
      <trkpt lat="50.35787" lon="3.69919">
        <ele>48.2</ele>
        <time>2016-02-26T10:17:35Z</time>
      </trkpt>
      <trkpt lat="50.35775" lon="3.69912">
        <ele>48.2</ele>
        <time>2016-02-26T10:17:45Z</time>
      </trkpt>
      <trkpt lat="50.35759" lon="3.69893">
        <ele>47.24</ele>
        <time>2016-02-26T10:18:03Z</time>
      </trkpt>
      <trkpt lat="50.35743" lon="3.69868">
        <ele>46.28</ele>
        <time>2016-02-26T10:18:20Z</time>
      </trkpt>
      <trkpt lat="50.35736" lon="3.6986">
        <ele>46.28</ele>
        <time>2016-02-26T10:18:29Z</time>
      </trkpt>
      <trkpt lat="50.35726" lon="3.69832">
        <ele>46.76</ele>
        <time>2016-02-26T10:18:47Z</time>
      </trkpt>
      <trkpt lat="50.35716" lon="3.69815">
        <ele>46.76</ele>
        <time>2016-02-26T10:19:07Z</time>
      </trkpt>
      <trkpt lat="50.35688" lon="3.69812">
        <ele>46.28</ele>
        <time>2016-02-26T10:19:32Z</time>
      </trkpt>
      <trkpt lat="50.35668" lon="3.69804">
        <ele>48.2</ele>
        <time>2016-02-26T10:19:51Z</time>
      </trkpt>
      <trkpt lat="50.35651" lon="3.69794">
        <ele>49.65</ele>
        <time>2016-02-26T10:20:09Z</time>
      </trkpt>
      <trkpt lat="50.35637" lon="3.69784">
        <ele>51.09</ele>
        <time>2016-02-26T10:20:26Z</time>
      </trkpt>
      <trkpt lat="50.35624" lon="3.6977">
        <ele>52.53</ele>
        <time>2016-02-26T10:20:41Z</time>
      </trkpt>
      <trkpt lat="50.35609" lon="3.69751">
        <ele>52.53</ele>
        <time>2016-02-26T10:20:59Z</time>
      </trkpt>
      <trkpt lat="50.35597" lon="3.69736">
        <ele>53.49</ele>
        <time>2016-02-26T10:21:17Z</time>
      </trkpt>
      <trkpt lat="50.35587" lon="3.69707">
        <ele>54.45</ele>
        <time>2016-02-26T10:21:38Z</time>
      </trkpt>
      <trkpt lat="50.3558" lon="3.69686">
        <ele>55.41</ele>
        <time>2016-02-26T10:21:59Z</time>
      </trkpt>
      <trkpt lat="50.35569" lon="3.69661">
        <ele>56.86</ele>
        <time>2016-02-26T10:22:20Z</time>
      </trkpt>
      <trkpt lat="50.35563" lon="3.69643">
        <ele>57.82</ele>
        <time>2016-02-26T10:22:38Z</time>
      </trkpt>
      <trkpt lat="50.35555" lon="3.69618">
        <ele>59.74</ele>
        <time>2016-02-26T10:23:00Z</time>
      </trkpt>
      <trkpt lat="50.35547" lon="3.696">
        <ele>61.66</ele>
        <time>2016-02-26T10:23:20Z</time>
      </trkpt>
      <trkpt lat="50.35533" lon="3.69576">
        <ele>63.58</ele>
        <time>2016-02-26T10:23:44Z</time>
      </trkpt>
      <trkpt lat="50.35525" lon="3.69556">
        <ele>65.03</ele>
        <time>2016-02-26T10:24:03Z</time>
      </trkpt>
      <trkpt lat="50.35516" lon="3.69533">
        <ele>66.47</ele>
        <time>2016-02-26T10:24:23Z</time>
      </trkpt>
      <trkpt lat="50.35512" lon="3.69516">
        <ele>67.91</ele>
        <time>2016-02-26T10:24:40Z</time>
      </trkpt>
      <trkpt lat="50.35505" lon="3.69487">
        <ele>70.31</ele>
        <time>2016-02-26T10:25:00Z</time>
      </trkpt>
      <trkpt lat="50.35498" lon="3.69466">
        <ele>70.79</ele>
        <time>2016-02-26T10:25:18Z</time>
      </trkpt>
      <trkpt lat="50.35482" lon="3.69435">
        <ele>72.24</ele>
        <time>2016-02-26T10:25:41Z</time>
      </trkpt>
      <trkpt lat="50.35468" lon="3.69413">
        <ele>73.2</ele>
        <time>2016-02-26T10:26:01Z</time>
      </trkpt>
      <trkpt lat="50.35453" lon="3.69403">
        <ele>74.64</ele>
        <time>2016-02-26T10:26:17Z</time>
      </trkpt>
      <trkpt lat="50.35445" lon="3.69399">
        <ele>75.12</ele>
        <time>2016-02-26T10:26:26Z</time>
      </trkpt>
      <trkpt lat="50.35423" lon="3.69386">
        <ele>76.08</ele>
        <time>2016-02-26T10:26:46Z</time>
      </trkpt>
      <trkpt lat="50.35405" lon="3.69377">
        <ele>76.08</ele>
        <time>2016-02-26T10:27:02Z</time>
      </trkpt>
      <trkpt lat="50.35384" lon="3.69375">
        <ele>77.04</ele>
        <time>2016-02-26T10:27:20Z</time>
      </trkpt>
      <trkpt lat="50.35368" lon="3.69375">
        <ele>77.04</ele>
        <time>2016-02-26T10:27:34Z</time>
      </trkpt>
      <trkpt lat="50.35346" lon="3.69367">
        <ele>76.56</ele>
        <time>2016-02-26T10:27:54Z</time>
      </trkpt>
      <trkpt lat="50.35338" lon="3.69363">
        <ele>77.52</ele>
        <time>2016-02-26T10:28:02Z</time>
      </trkpt>
      <trkpt lat="50.35316" lon="3.69361">
        <ele>78.48</ele>
        <time>2016-02-26T10:28:20Z</time>
      </trkpt>
      <trkpt lat="50.35294" lon="3.69359">
        <ele>78.48</ele>
        <time>2016-02-26T10:28:40Z</time>
      </trkpt>
      <trkpt lat="50.35273" lon="3.69357">
        <ele>78.97</ele>
        <time>2016-02-26T10:29:00Z</time>
      </trkpt>
      <trkpt lat="50.35255" lon="3.69359">
        <ele>79.45</ele>
        <time>2016-02-26T10:29:14Z</time>
      </trkpt>
      <trkpt lat="50.35238" lon="3.69359">
        <ele>79.93</ele>
        <time>2016-02-26T10:29:29Z</time>
      </trkpt>
      <trkpt lat="50.35223" lon="3.69358">
        <ele>80.41</ele>
        <time>2016-02-26T10:29:42Z</time>
      </trkpt>
      <trkpt lat="50.35207" lon="3.69357">
        <ele>80.41</ele>
        <time>2016-02-26T10:29:55Z</time>
      </trkpt>
      <trkpt lat="50.35194" lon="3.6935">
        <ele>81.37</ele>
        <time>2016-02-26T10:30:11Z</time>
      </trkpt>
      <trkpt lat="50.35178" lon="3.69341">
        <ele>81.37</ele>
        <time>2016-02-26T10:30:25Z</time>
      </trkpt>
      <trkpt lat="50.35169" lon="3.69334">
        <ele>81.85</ele>
        <time>2016-02-26T10:30:34Z</time>
      </trkpt>
      <trkpt lat="50.35161" lon="3.6932">
        <ele>81.85</ele>
        <time>2016-02-26T10:30:43Z</time>
      </trkpt>
      <trkpt lat="50.35159" lon="3.69314">
        <ele>82.33</ele>
        <time>2016-02-26T10:30:47Z</time>
      </trkpt>
      <trkpt lat="50.35148" lon="3.69299">
        <ele>81.85</ele>
        <time>2016-02-26T10:31:00Z</time>
      </trkpt>
      <trkpt lat="50.35136" lon="3.69282">
        <ele>82.33</ele>
        <time>2016-02-26T10:31:14Z</time>
      </trkpt>
      <trkpt lat="50.35127" lon="3.69272">
        <ele>82.81</ele>
        <time>2016-02-26T10:31:23Z</time>
      </trkpt>
      <trkpt lat="50.35125" lon="3.69269">
        <ele>82.33</ele>
        <time>2016-02-26T10:31:28Z</time>
      </trkpt>
      <trkpt lat="50.35128" lon="3.69243">
        <ele>81.37</ele>
        <time>2016-02-26T10:31:43Z</time>
      </trkpt>
      <trkpt lat="50.35132" lon="3.69222">
        <ele>80.89</ele>
        <time>2016-02-26T10:31:56Z</time>
      </trkpt>
      <trkpt lat="50.35136" lon="3.69202">
        <ele>79.93</ele>
        <time>2016-02-26T10:32:09Z</time>
      </trkpt>
      <trkpt lat="50.35138" lon="3.69177">
        <ele>78.97</ele>
        <time>2016-02-26T10:32:22Z</time>
      </trkpt>
      <trkpt lat="50.35143" lon="3.69145">
        <ele>76.56</ele>
        <time>2016-02-26T10:32:41Z</time>
      </trkpt>
      <trkpt lat="50.3514" lon="3.69132">
        <ele>76.08</ele>
        <time>2016-02-26T10:32:48Z</time>
      </trkpt>
      <trkpt lat="50.35139" lon="3.69104">
        <ele>73.68</ele>
        <time>2016-02-26T10:33:05Z</time>
      </trkpt>
      <trkpt lat="50.35139" lon="3.69084">
        <ele>71.76</ele>
        <time>2016-02-26T10:33:22Z</time>
      </trkpt>
      <trkpt lat="50.35137" lon="3.69073">
        <ele>69.35</ele>
        <time>2016-02-26T10:33:35Z</time>
      </trkpt>
      <trkpt lat="50.3513" lon="3.69073">
        <ele>69.35</ele>
        <time>2016-02-26T10:33:42Z</time>
      </trkpt>
      <trkpt lat="50.35114" lon="3.69075">
        <ele>69.83</ele>
        <time>2016-02-26T10:33:55Z</time>
      </trkpt>
      <trkpt lat="50.35112" lon="3.69074">
        <ele>69.83</ele>
        <time>2016-02-26T10:33:57Z</time>
      </trkpt>
      <trkpt lat="50.35096" lon="3.69077">
        <ele>70.31</ele>
        <time>2016-02-26T10:34:12Z</time>
      </trkpt>
      <trkpt lat="50.3508" lon="3.69078">
        <ele>70.79</ele>
        <time>2016-02-26T10:34:29Z</time>
      </trkpt>
    </trkseg>
  </trk>
</gpx>